createdAt,value
2023-01-22T00:01:54.063Z,98613.38
2023-01-22T00:04:20.735Z,98628.25
2023-01-22T00:06:47.303Z,98618.59
2023-01-22T00:09:15.715Z,98618.41
2023-01-22T00:11:42.414Z,98634.00
2023-01-22T00:14:09.435Z,98629.75
2023-01-22T00:16:36.077Z,98615.59
2023-01-22T00:19:02.500Z,98618.94
2023-01-22T00:21:33.375Z,98618.75
2023-01-22T00:24:00.471Z,98625.94
2023-01-22T00:26:27.392Z,98626.00
2023-01-22T00:28:54.052Z,98627.13
2023-01-22T00:31:20.823Z,98624.91
2023-01-22T00:33:47.801Z,98621.97
2023-01-22T00:36:17.037Z,98628.44
2023-01-22T00:38:43.703Z,98616.06
2023-01-22T00:41:10.783Z,98619.88
2023-01-22T00:43:40.748Z,98618.38
2023-01-22T00:46:09.219Z,98601.09
2023-01-22T00:48:36.751Z,98617.75
2023-01-22T00:51:03.805Z,98596.59
2023-01-22T00:53:31.146Z,98601.81
2023-01-22T00:55:59.926Z,98600.91
2023-01-22T00:58:27.663Z,98595.69
2023-01-22T01:00:55.670Z,98605.56
2023-01-22T01:03:31.357Z,98602.38
2023-01-22T01:06:06.596Z,98597.19
2023-01-22T01:08:38.717Z,98599.13
2023-01-22T01:11:09.053Z,98595.06
2023-01-22T01:13:42.849Z,98586.22
2023-01-22T01:16:14.768Z,98598.88
2023-01-22T01:18:41.727Z,98598.22
2023-01-22T01:21:08.525Z,98588.34
2023-01-22T01:23:36.020Z,98597.94
2023-01-22T01:26:09.433Z,98592.00
2023-01-22T01:28:37.477Z,98585.84
2023-01-22T01:31:10.130Z,98583.59
2023-01-22T01:33:37.403Z,98582.47
2023-01-22T01:36:10.324Z,98580.44
2023-01-22T01:38:36.820Z,98588.81
2023-01-22T01:41:03.718Z,98591.44
2023-01-22T01:43:30.299Z,98587.88
2023-01-22T01:45:59.409Z,98583.81
2023-01-22T01:48:42.265Z,98582.78
2023-01-22T01:51:18.000Z,98588.00
2023-01-22T01:53:47.777Z,98596.25
2023-01-22T01:56:28.901Z,98593.84
2023-01-22T01:59:02.470Z,98584.53
2023-01-22T02:01:28.860Z,98607.06
2023-01-22T02:03:56.865Z,98612.00
2023-01-22T02:06:23.589Z,98592.63
2023-01-22T02:08:51.792Z,98619.91
2023-01-22T02:11:19.996Z,98626.44
2023-01-22T02:14:21.985Z,98625.28
2023-01-22T02:16:48.451Z,98624.84
2023-01-22T02:19:15.104Z,98627.34
2023-01-22T02:21:44.748Z,98627.09
2023-01-22T02:24:13.692Z,98637.75
2023-01-22T02:26:42.347Z,98632.19
2023-01-22T02:29:10.545Z,98635.66
2023-01-22T02:31:38.696Z,98648.19
2023-01-22T02:34:05.984Z,98651.19
2023-01-22T02:36:35.093Z,98655.66
2023-01-22T02:39:01.906Z,98653.03
2023-01-22T02:41:28.619Z,98650.22
2023-01-22T02:43:55.209Z,98656.56
2023-01-22T02:46:22.303Z,98651.31
2023-01-22T02:48:48.709Z,98652.19
2023-01-22T02:51:15.246Z,98662.34
2023-01-22T02:53:41.700Z,98651.34
2023-01-22T02:56:09.325Z,98658.91
2023-01-22T02:58:36.194Z,98664.41
2023-01-22T03:01:20.795Z,98655.38
2023-01-22T03:03:53.546Z,98655.84
2023-01-22T03:06:21.904Z,98651.44
2023-01-22T03:08:50.128Z,98645.41
2023-01-22T03:11:16.935Z,98628.09
2023-01-22T03:14:02.166Z,98632.81
2023-01-22T03:16:47.080Z,98645.03
2023-01-22T03:19:32.296Z,98644.28
2023-01-22T03:22:00.389Z,98635.94
2023-01-22T03:24:26.963Z,98640.84
2023-01-22T03:26:53.555Z,98638.16
2023-01-22T03:29:20.098Z,98641.22
2023-01-22T03:34:20.535Z,98632.94
2023-01-22T03:36:47.389Z,98636.28
2023-01-22T03:39:14.191Z,98638.50
2023-01-22T03:41:41.090Z,98614.88
2023-01-22T03:44:11.627Z,98638.88
2023-01-22T03:46:40.276Z,98634.03
2023-01-22T03:49:08.632Z,98645.34
2023-01-22T03:51:35.884Z,98630.06
2023-01-22T03:54:02.714Z,98640.56
2023-01-22T03:56:29.570Z,98635.16
2023-01-22T03:58:57.178Z,98643.94
2023-01-22T04:01:26.135Z,98647.06
2023-01-22T04:03:54.555Z,98640.94
2023-01-22T04:06:22.628Z,98638.91
2023-01-22T04:08:50.854Z,98610.59
2023-01-22T04:11:18.444Z,98620.72
2023-01-22T04:13:45.576Z,98636.28
2023-01-22T04:16:14.148Z,98621.78
2023-01-22T04:18:41.967Z,98614.13
2023-01-22T04:21:09.375Z,98628.38
2023-01-22T04:23:36.014Z,98626.22
2023-01-22T04:26:02.468Z,98615.25
2023-01-22T04:28:28.999Z,98611.44
2023-01-22T04:30:56.104Z,98605.94
2023-01-22T04:33:22.817Z,98610.50
2023-01-22T04:35:51.958Z,98606.25
2023-01-22T04:38:18.771Z,98604.00
2023-01-22T04:40:45.469Z,98596.25
2023-01-22T04:43:12.341Z,98604.44
2023-01-22T04:45:38.763Z,98605.56
2023-01-22T04:48:05.633Z,98616.91
2023-01-22T04:50:34.094Z,98598.13
2023-01-22T04:53:01.644Z,98597.38
2023-01-22T04:55:29.269Z,98596.47
2023-01-22T04:58:00.705Z,98590.41
2023-01-22T05:00:28.421Z,98589.19
2023-01-22T05:02:59.277Z,98590.97
2023-01-22T05:05:26.439Z,98604.53
2023-01-22T05:07:53.254Z,98593.00
2023-01-22T05:10:20.366Z,98596.22
2023-01-22T05:12:47.343Z,98589.38
2023-01-22T05:15:23.523Z,98572.78
2023-01-22T05:17:50.805Z,98576.91
2023-01-22T05:20:18.590Z,98584.34
2023-01-22T05:22:45.395Z,98564.06
2023-01-22T05:25:12.253Z,98566.09
2023-01-22T05:27:39.999Z,98566.09
2023-01-22T05:30:09.443Z,98555.75
2023-01-22T05:32:35.887Z,98560.06
2023-01-22T05:35:03.645Z,98540.31
2023-01-22T05:37:31.396Z,98544.88
2023-01-22T05:39:57.900Z,98544.72
2023-01-22T05:42:24.500Z,98545.81
2023-01-22T05:44:50.932Z,98526.63
2023-01-22T05:47:17.491Z,98522.56
2023-01-22T05:49:43.879Z,98510.09
2023-01-22T05:52:13.163Z,98520.97
2023-01-22T05:54:39.944Z,98527.69
2023-01-22T05:57:07.254Z,98500.50
2023-01-22T05:59:33.736Z,98525.53
2023-01-22T06:02:00.154Z,98532.72
2023-01-22T06:04:26.723Z,98500.03
2023-01-22T06:06:53.134Z,98522.34
2023-01-22T06:09:19.671Z,98523.19
2023-01-22T06:11:46.083Z,98539.75
2023-01-22T06:14:12.488Z,98510.44
2023-01-22T06:16:39.416Z,98535.75
2023-01-22T06:19:06.273Z,98543.47
2023-01-22T06:21:32.680Z,98541.19
2023-01-22T06:23:59.100Z,98542.84
2023-01-22T06:26:25.516Z,98552.72
2023-01-22T06:28:53.330Z,98549.34
2023-01-22T06:31:19.814Z,98539.66
2023-01-22T06:33:46.251Z,98530.53
2023-01-22T06:36:13.665Z,98539.56
2023-01-22T06:38:40.058Z,98535.16
2023-01-22T06:41:06.544Z,98556.25
2023-01-22T06:43:40.455Z,98519.94
2023-01-22T06:46:07.005Z,98557.00
2023-01-22T06:48:33.941Z,98559.97
2023-01-22T06:51:00.508Z,98571.13
2023-01-22T06:53:27.615Z,98561.25
2023-01-22T06:55:54.811Z,98562.03
2023-01-22T06:58:21.923Z,98565.44
2023-01-22T07:00:48.339Z,98559.28
2023-01-22T07:03:14.936Z,98558.66
2023-01-22T07:05:41.428Z,98558.84
2023-01-22T07:08:07.885Z,98566.66
2023-01-22T07:10:34.306Z,98589.66
2023-01-22T07:13:01.655Z,98584.06
2023-01-22T07:15:28.133Z,98591.13
2023-01-22T07:17:54.854Z,98568.44
2023-01-22T07:20:23.269Z,98587.13
2023-01-22T07:22:50.658Z,98585.09
2023-01-22T07:25:18.068Z,98564.78
2023-01-22T07:27:44.594Z,98564.97
2023-01-22T07:30:11.445Z,98556.06
2023-01-22T07:32:37.891Z,98555.50
2023-01-22T07:35:04.577Z,98558.28
2023-01-22T07:37:31.015Z,98549.16
2023-01-22T07:39:57.417Z,98536.31
2023-01-22T07:42:23.943Z,98539.84
2023-01-22T07:44:50.357Z,98529.63
2023-01-22T07:47:16.848Z,98511.69
2023-01-22T07:49:43.434Z,98523.38
2023-01-22T07:52:09.920Z,98505.31
2023-01-22T07:54:36.524Z,98528.03
2023-01-22T07:57:03.877Z,98524.38
2023-01-22T07:59:30.569Z,98511.94
2023-01-22T08:01:57.944Z,98519.16
2023-01-22T08:04:24.991Z,98520.47
2023-01-22T08:06:52.483Z,98527.56
2023-01-22T08:09:24.831Z,98528.66
2023-01-22T08:11:52.474Z,98485.13
2023-01-22T08:14:19.659Z,98502.16
2023-01-22T08:16:46.155Z,98538.59
2023-01-22T08:19:12.848Z,98487.19
2023-01-22T08:21:39.239Z,98558.31
2023-01-22T08:24:08.075Z,98552.41
2023-01-22T08:26:34.738Z,98567.16
2023-01-22T08:29:04.345Z,98570.50
2023-01-22T08:31:33.444Z,98586.16
2023-01-22T08:34:00.241Z,98588.91
2023-01-22T08:36:27.134Z,98584.94
2023-01-22T08:38:54.127Z,98609.25
2023-01-22T08:41:21.651Z,98631.78
2023-01-22T08:43:48.124Z,98630.41
2023-01-22T08:46:14.906Z,98622.00
2023-01-22T08:48:43.366Z,98632.78
2023-01-22T08:51:13.167Z,98626.97
2023-01-22T08:53:39.685Z,98666.94
2023-01-22T08:56:08.092Z,98686.97
2023-01-22T08:58:34.640Z,98686.03
2023-01-22T09:01:01.192Z,98691.22
2023-01-22T09:03:29.094Z,98675.75
2023-01-22T09:05:58.943Z,98719.00
2023-01-22T09:08:25.593Z,98712.38
2023-01-22T09:10:52.424Z,98723.75
2023-01-22T09:13:18.878Z,98727.78
2023-01-22T09:15:45.322Z,98713.03
2023-01-22T09:18:11.739Z,98742.03
2023-01-22T09:20:38.161Z,98747.16
2023-01-22T09:23:04.634Z,98744.34
2023-01-22T09:25:31.136Z,98754.03
2023-01-22T09:28:01.207Z,98747.59
2023-01-22T09:30:30.256Z,98760.56
2023-01-22T09:32:57.222Z,98772.88
2023-01-22T09:35:23.952Z,98768.84
2023-01-22T09:37:50.467Z,98768.97
2023-01-22T09:40:40.811Z,98780.31
2023-01-22T09:43:23.889Z,98779.22
2023-01-22T09:45:54.787Z,98798.03
2023-01-22T09:48:22.773Z,98816.78
2023-01-22T09:50:50.724Z,98806.41
2023-01-22T09:53:20.331Z,98810.69
2023-01-22T09:55:50.523Z,98820.72
2023-01-22T09:58:25.286Z,98812.28
2023-01-22T10:01:02.424Z,98816.84
2023-01-22T10:03:41.688Z,98820.72
2023-01-22T10:06:14.754Z,98818.81
2023-01-22T10:08:59.198Z,98821.84
2023-01-22T10:11:26.086Z,98819.06
2023-01-22T10:13:58.484Z,98851.63
2023-01-22T10:16:25.325Z,98825.72
2023-01-22T10:19:01.168Z,98851.63
2023-01-22T10:21:41.260Z,98858.31
2023-01-22T10:24:10.755Z,98861.16
2023-01-22T10:26:38.692Z,98864.38
2023-01-22T10:29:12.704Z,98873.56
2023-01-22T10:31:45.729Z,98878.13
2023-01-22T10:34:14.366Z,98881.50
2023-01-22T10:36:40.867Z,98884.47
2023-01-22T10:39:15.969Z,98890.28
2023-01-22T10:41:45.451Z,98884.19
2023-01-22T10:44:19.296Z,98902.72
2023-01-22T10:46:46.595Z,98899.53
2023-01-22T10:49:17.204Z,98918.88
2023-01-22T10:51:50.610Z,98898.81
2023-01-22T10:54:22.118Z,98907.59
2023-01-22T10:56:49.751Z,98926.22
2023-01-22T10:59:26.492Z,98917.84
2023-01-22T11:01:59.237Z,98867.44
2023-01-22T11:04:29.254Z,98910.00
2023-01-22T11:07:17.563Z,98908.72
2023-01-22T11:09:54.605Z,98910.66
2023-01-22T11:12:35.652Z,98911.91
2023-01-22T11:15:13.065Z,98905.91
2023-01-22T11:17:46.691Z,98916.66
2023-01-22T11:20:17.195Z,98923.44
2023-01-22T11:22:48.261Z,98913.72
2023-01-22T11:25:14.698Z,98920.06
2023-01-22T11:28:07.697Z,98926.47
2023-01-22T11:30:53.516Z,98913.16
2023-01-22T11:34:03.571Z,98914.69
2023-01-22T11:36:40.319Z,98910.81
2023-01-22T11:39:24.946Z,98911.41
2023-01-22T11:42:02.697Z,98915.69
2023-01-22T11:44:50.641Z,98918.22
2023-01-22T11:47:31.734Z,98924.63
2023-01-22T11:50:23.308Z,98924.31
2023-01-22T11:53:23.129Z,98916.56
2023-01-22T11:56:02.644Z,98862.19
2023-01-22T11:58:52.429Z,98913.38
2023-01-22T12:01:31.508Z,98915.41
2023-01-22T12:04:12.971Z,98911.69
2023-01-22T12:07:09.761Z,98909.50
2023-01-22T12:09:48.347Z,98909.16
2023-01-22T12:12:22.716Z,98906.63
2023-01-22T12:15:03.841Z,98905.81
2023-01-22T12:17:39.880Z,98916.41
2023-01-22T12:20:30.813Z,98900.25
2023-01-22T12:23:17.509Z,98908.22
2023-01-22T12:25:50.520Z,98905.63
2023-01-22T12:28:27.801Z,98896.28
2023-01-22T12:31:02.751Z,98901.50
2023-01-22T12:33:32.069Z,98893.25
2023-01-22T12:36:02.547Z,98894.41
2023-01-22T12:38:50.798Z,98896.78
2023-01-22T12:41:27.704Z,98893.34
2023-01-22T12:43:57.954Z,98894.53
2023-01-22T12:46:59.927Z,98892.53
2023-01-22T12:49:27.330Z,98875.16
2023-01-22T12:51:56.004Z,98881.06
2023-01-22T12:54:36.394Z,98887.47
2023-01-22T12:57:10.555Z,98883.53
2023-01-22T12:59:36.974Z,98900.44
2023-01-22T13:02:26.313Z,98890.00
2023-01-22T13:04:53.759Z,98889.09
2023-01-22T13:07:29.443Z,98890.50
2023-01-22T13:10:29.254Z,98889.78
2023-01-22T13:12:59.955Z,98885.53
2023-01-22T13:15:32.589Z,98890.84
2023-01-22T13:18:16.817Z,98878.75
2023-01-22T13:20:53.093Z,98869.50
2023-01-22T13:23:21.606Z,98876.06
2023-01-22T13:25:54.723Z,98885.31
2023-01-22T13:28:23.186Z,98861.09
2023-01-22T13:31:04.148Z,98865.41
2023-01-22T13:33:31.452Z,98881.19
2023-01-22T13:35:58.405Z,98872.78
2023-01-22T13:38:30.919Z,98873.19
2023-01-22T13:41:02.714Z,98862.69
2023-01-22T13:43:29.920Z,98868.75
2023-01-22T13:45:58.131Z,98875.56
2023-01-22T13:48:26.506Z,98871.44
2023-01-22T13:50:56.463Z,98869.50
2023-01-22T13:53:39.503Z,98864.63
2023-01-22T13:56:07.415Z,98861.63
2023-01-22T13:58:49.409Z,98870.19
2023-01-22T14:01:35.881Z,98856.72
2023-01-22T14:04:07.881Z,98869.84
2023-01-22T14:06:46.194Z,98874.06
2023-01-22T14:09:13.071Z,98866.50
2023-01-22T14:11:40.552Z,98874.47
2023-01-22T14:14:17.951Z,98878.91
2023-01-22T14:16:44.872Z,98880.44
2023-01-22T14:19:11.400Z,98880.44
2023-01-22T14:21:37.871Z,98867.66
2023-01-22T14:24:05.186Z,98866.97
2023-01-22T14:26:32.754Z,98880.75
2023-01-22T14:28:59.278Z,98878.75
2023-01-22T14:31:25.823Z,98888.00
2023-01-22T14:33:52.409Z,98881.50
2023-01-22T14:36:20.328Z,98881.59
2023-01-22T14:38:49.586Z,98882.03
2023-01-22T14:41:16.047Z,98872.38
2023-01-22T14:43:42.514Z,98890.53
2023-01-22T14:46:09.035Z,98896.06
2023-01-22T14:48:35.611Z,98895.22
2023-01-22T14:51:08.677Z,98901.78
2023-01-22T14:53:36.381Z,98905.16
2023-01-22T14:56:02.864Z,98905.47
2023-01-22T14:58:29.329Z,98896.75
2023-01-22T15:00:55.759Z,98899.44
2023-01-22T15:03:22.262Z,98890.53
2023-01-22T15:05:52.673Z,98905.06
2023-01-22T15:08:19.767Z,98902.97
2023-01-22T15:10:46.300Z,98909.34
2023-01-22T15:13:12.835Z,98909.19
2023-01-22T15:15:40.318Z,98907.34
2023-01-22T15:18:06.839Z,98908.09
2023-01-22T15:20:33.238Z,98910.59
2023-01-22T15:23:00.191Z,98907.50
2023-01-22T15:25:27.344Z,98912.00
2023-01-22T15:27:53.892Z,98917.16
2023-01-22T15:30:20.704Z,98918.25
2023-01-22T15:32:47.579Z,98937.06
2023-01-22T15:35:14.249Z,98925.00
2023-01-22T15:37:40.919Z,98934.72
2023-01-22T15:40:09.780Z,98927.44
2023-01-22T15:42:36.855Z,98938.44
2023-01-22T15:45:10.503Z,98942.81
2023-01-22T15:47:36.947Z,98929.03
2023-01-22T15:50:04.464Z,98929.69
2023-01-22T15:52:31.042Z,98942.22
2023-01-22T15:54:57.656Z,98928.09
2023-01-22T15:57:24.093Z,98940.63
2023-01-22T15:59:51.563Z,98932.22
2023-01-22T16:02:18.447Z,98941.28
2023-01-22T16:04:44.928Z,98944.81
2023-01-22T16:07:11.357Z,98932.66
2023-01-22T16:09:40.969Z,98928.50
2023-01-22T16:12:07.699Z,98935.75
2023-01-22T16:14:34.167Z,98941.38
2023-01-22T16:17:00.732Z,98942.22
2023-01-22T16:19:27.226Z,98940.94
2023-01-22T16:21:53.840Z,98939.94
2023-01-22T16:24:20.743Z,98944.66
2023-01-22T16:26:47.326Z,98948.34
2023-01-22T16:29:13.812Z,98965.56
2023-01-22T16:31:40.631Z,98949.84
2023-01-22T16:34:10.215Z,98953.66
2023-01-22T16:36:37.272Z,98975.31
2023-01-22T16:39:04.328Z,98978.53
2023-01-22T16:41:33.680Z,98991.50
2023-01-22T16:44:11.809Z,98986.25
2023-01-22T16:46:40.564Z,98992.34
2023-01-22T16:49:25.167Z,98987.16
2023-01-22T16:51:53.864Z,98987.31
2023-01-22T16:54:30.680Z,98990.44
2023-01-22T16:57:03.090Z,99024.78
2023-01-22T16:59:30.334Z,98996.06
2023-01-22T17:02:00.150Z,99017.34
2023-01-22T17:04:28.309Z,99013.44
2023-01-22T17:06:56.933Z,99027.31
2023-01-22T17:09:26.604Z,99022.97
2023-01-22T17:11:55.737Z,99039.94
2023-01-22T17:14:24.383Z,99045.06
2023-01-22T17:16:51.232Z,99040.78
2023-01-22T17:19:18.693Z,99058.09
2023-01-22T17:21:45.530Z,99064.69
2023-01-22T17:24:13.038Z,99072.56
2023-01-22T17:26:42.659Z,99070.66
2023-01-22T17:29:09.567Z,99039.91
2023-01-22T17:31:36.988Z,99068.69
2023-01-22T17:34:04.491Z,99087.84
2023-01-22T17:36:31.690Z,99091.19
2023-01-22T17:38:58.445Z,99060.53
2023-01-22T17:41:25.975Z,99103.47
2023-01-22T17:43:55.210Z,99120.81
2023-01-22T17:46:24.830Z,99123.66
2023-01-22T17:48:52.192Z,99116.94
2023-01-22T17:51:21.985Z,99115.84
2023-01-22T17:53:50.396Z,99117.25
2023-01-22T17:56:22.487Z,99129.22
2023-01-22T17:58:51.775Z,99124.38
2023-01-22T18:01:20.845Z,99125.66
2023-01-22T18:03:48.186Z,99144.84
2023-01-22T18:06:14.809Z,99148.16
2023-01-22T18:08:42.485Z,99150.88
2023-01-22T18:11:15.650Z,99151.38
2023-01-22T18:13:42.762Z,99160.31
2023-01-22T18:16:13.764Z,99169.66
2023-01-22T18:18:41.409Z,99168.44
2023-01-22T18:21:11.354Z,99176.78
2023-01-22T18:23:37.795Z,99179.94
2023-01-22T18:26:06.432Z,99164.25
2023-01-22T18:28:33.724Z,99186.34
2023-01-22T18:31:05.738Z,99187.00
2023-01-22T18:33:35.578Z,99175.50
2023-01-22T18:36:02.323Z,99189.59
2023-01-22T18:38:29.144Z,99189.75
2023-01-22T18:40:56.932Z,99197.25
2023-01-22T18:43:23.378Z,99205.38
2023-01-22T18:45:49.776Z,99205.97
2023-01-22T18:48:16.845Z,99172.41
2023-01-22T18:50:43.923Z,99214.41
2023-01-22T18:53:10.356Z,99214.97
2023-01-22T18:55:36.887Z,99218.47
2023-01-22T18:58:08.652Z,99213.25
2023-01-22T19:00:37.976Z,99225.91
2023-01-22T19:03:04.582Z,99218.19
2023-01-22T19:05:31.084Z,99222.94
2023-01-22T19:07:57.516Z,99220.88
2023-01-22T19:10:25.034Z,99226.16
2023-01-22T19:12:51.504Z,99227.44
2023-01-22T19:15:18.525Z,99231.88
2023-01-22T19:17:45.147Z,99204.88
2023-01-22T19:20:13.184Z,99250.66
2023-01-22T19:22:39.711Z,99242.59
2023-01-22T19:25:06.867Z,99243.53
2023-01-22T19:27:33.586Z,99243.91
2023-01-22T19:30:00.693Z,99212.41
2023-01-22T19:32:28.048Z,99221.84
2023-01-22T19:34:55.326Z,99240.66
2023-01-22T19:37:21.786Z,99226.34
2023-01-22T19:39:48.385Z,99118.47
2023-01-22T19:42:15.816Z,99199.06
2023-01-22T19:44:43.080Z,99233.16
2023-01-22T19:47:10.967Z,99225.00
2023-01-22T19:49:37.668Z,99230.50
2023-01-22T19:52:04.187Z,99239.69
2023-01-22T19:54:30.850Z,99240.00
2023-01-22T19:56:57.410Z,99224.22
2023-01-22T19:59:24.460Z,99223.84
2023-01-22T20:01:51.139Z,99233.72
2023-01-22T20:04:27.131Z,99225.59
2023-01-22T20:07:02.035Z,99225.06
2023-01-22T20:09:30.111Z,99226.81
2023-01-22T20:11:58.206Z,99219.19
2023-01-22T20:14:29.698Z,99215.97
2023-01-22T20:16:57.778Z,99215.66
2023-01-22T20:19:24.315Z,99211.22
2023-01-22T20:21:50.784Z,99208.91
2023-01-22T20:24:17.742Z,99204.06
2023-01-22T20:26:44.184Z,99196.19
2023-01-22T20:29:12.879Z,99200.25
2023-01-22T20:31:39.582Z,99203.94
2023-01-22T20:34:06.335Z,99209.13
2023-01-22T20:36:33.826Z,99207.38
2023-01-22T20:39:02.065Z,99175.94
2023-01-22T20:41:30.618Z,99215.97
2023-01-22T20:43:57.346Z,99215.19
2023-01-22T20:46:26.275Z,99228.28
2023-01-22T20:48:55.754Z,99216.09
2023-01-22T20:51:24.557Z,99218.09
2023-01-22T20:53:53.529Z,99215.56
2023-01-22T20:56:28.380Z,99214.41
2023-01-22T20:58:57.317Z,99197.63
2023-01-22T21:01:24.296Z,99214.13
2023-01-22T21:03:50.879Z,99218.72
2023-01-22T21:06:19.654Z,99211.34
2023-01-22T21:08:51.311Z,99209.13
2023-01-22T21:11:20.417Z,99217.03
2023-01-22T21:13:48.583Z,99218.88
2023-01-22T21:16:18.066Z,99222.25
2023-01-22T21:18:46.247Z,99221.16
2023-01-22T21:21:18.170Z,99209.19
2023-01-22T21:23:46.733Z,99213.66
2023-01-22T21:26:19.078Z,99206.97
2023-01-22T21:28:47.892Z,99210.72
2023-01-22T21:31:17.033Z,99215.47
2023-01-22T21:33:44.062Z,99218.78
2023-01-22T21:36:12.325Z,99202.31
2023-01-22T21:38:40.165Z,99206.47
2023-01-22T21:41:12.585Z,99197.88
2023-01-22T21:43:59.486Z,99199.69
2023-01-22T21:46:27.274Z,99182.75
2023-01-22T21:48:58.256Z,99180.47
2023-01-22T21:51:25.845Z,99191.13
2023-01-22T21:53:54.220Z,99166.59
2023-01-22T21:56:20.874Z,99198.25
2023-01-22T21:58:47.659Z,99182.41
2023-01-22T22:01:20.644Z,99181.34
2023-01-22T22:03:47.885Z,99137.31
2023-01-22T22:06:14.371Z,99187.22
2023-01-22T22:08:43.701Z,99201.56
2023-01-22T22:11:12.866Z,99180.34
2023-01-22T22:13:39.769Z,99195.41
2023-01-22T22:16:08.661Z,99190.97
2023-01-22T22:18:35.833Z,99188.13
2023-01-22T22:21:05.371Z,99177.00
2023-01-22T22:23:32.743Z,99188.44
2023-01-22T22:26:00.597Z,99182.69
2023-01-22T22:28:27.111Z,99179.34
2023-01-22T22:30:54.049Z,99181.34
2023-01-22T22:33:20.509Z,99161.09
2023-01-22T22:35:47.406Z,99139.47
2023-01-22T22:38:15.022Z,99156.63
2023-01-22T22:40:41.815Z,99148.56
2023-01-22T22:43:08.992Z,99134.16
2023-01-22T22:45:37.682Z,99134.16
2023-01-22T22:48:05.318Z,99128.06
2023-01-22T22:50:31.986Z,99142.38
2023-01-22T22:52:58.469Z,99144.84
2023-01-22T22:55:28.653Z,99126.63
2023-01-22T22:57:55.264Z,99138.34
2023-01-22T23:00:22.208Z,99136.31
2023-01-22T23:02:48.769Z,99137.00
2023-01-22T23:05:15.286Z,99138.84
2023-01-22T23:07:41.936Z,99140.22
2023-01-22T23:10:28.693Z,99132.72
2023-01-22T23:12:57.623Z,99130.59
2023-01-22T23:15:29.774Z,99144.22
2023-01-22T23:17:57.539Z,99137.31
2023-01-22T23:20:27.794Z,99130.13
2023-01-22T23:22:58.759Z,99128.28
2023-01-22T23:25:25.320Z,99138.69
2023-01-22T23:27:52.085Z,99088.59
2023-01-22T23:30:20.089Z,99135.16
2023-01-22T23:32:46.881Z,99130.88
2023-01-22T23:35:13.410Z,99133.16
2023-01-22T23:37:41.416Z,99137.94
2023-01-22T23:40:08.700Z,99117.84
2023-01-22T23:42:35.116Z,99130.44
2023-01-22T23:45:01.594Z,99132.66
2023-01-22T23:47:28.046Z,99135.88
2023-01-22T23:49:54.591Z,99117.47
2023-01-22T23:52:21.201Z,99110.44
2023-01-22T23:54:48.337Z,99109.34
2023-01-22T23:57:14.769Z,99112.44
2023-01-22T23:59:41.197Z,99111.88
